createdAt,value
2023-05-21T00:00:20.766Z,77.48
2023-05-21T00:05:22.592Z,77.70
2023-05-21T00:10:24.357Z,77.99
2023-05-21T00:15:26.150Z,78.00
2023-05-21T00:20:29.432Z,78.28
2023-05-21T00:25:31.306Z,78.26
2023-05-21T00:30:33.028Z,78.11
2023-05-21T00:35:35.115Z,78.14
2023-05-21T00:40:37.162Z,78.33
2023-05-21T00:45:39.813Z,78.35
2023-05-21T00:50:42.184Z,78.41
2023-05-21T00:55:44.307Z,78.48
2023-05-21T01:00:46.963Z,78.65
2023-05-21T01:05:53.491Z,78.94
2023-05-21T01:10:56.852Z,79.03
2023-05-21T01:16:00.209Z,79.19
2023-05-21T01:21:02.410Z,79.36
2023-05-21T01:26:04.311Z,79.34
2023-05-21T01:31:27.574Z,79.77
2023-05-21T01:36:34.575Z,80.10
2023-05-21T01:41:41.226Z,80.32
2023-05-21T01:46:43.130Z,80.60
2023-05-21T01:51:45.820Z,80.64
2023-05-21T01:56:48.055Z,80.92
2023-05-21T02:01:49.944Z,80.90
2023-05-21T02:06:51.974Z,81.08
2023-05-21T02:11:54.017Z,81.25
2023-05-21T02:16:56.860Z,81.33
2023-05-21T02:21:58.553Z,81.50
2023-05-21T02:27:00.265Z,81.51
2023-05-21T02:32:02.175Z,81.50
2023-05-21T02:37:04.196Z,81.51
2023-05-21T02:42:05.983Z,81.57
2023-05-21T02:47:10.334Z,81.65
2023-05-21T02:52:13.021Z,81.85
2023-05-21T02:57:15.352Z,82.16
2023-05-21T03:02:17.598Z,82.21
2023-05-21T03:07:19.940Z,82.04
2023-05-21T03:12:21.950Z,82.03
2023-05-21T03:17:23.914Z,81.86
2023-05-21T03:22:25.763Z,81.64
2023-05-21T03:27:28.129Z,81.43
2023-05-21T03:32:30.617Z,81.10
2023-05-21T03:37:33.031Z,81.00
2023-05-21T03:42:35.599Z,81.09
2023-05-21T03:47:37.526Z,80.99
2023-05-21T03:52:41.193Z,81.00
2023-05-21T03:57:43.122Z,80.81
2023-05-21T04:02:45.130Z,80.52
2023-05-21T04:07:48.592Z,79.82
2023-05-21T04:12:52.448Z,79.16
2023-05-21T04:17:55.287Z,78.23
2023-05-21T04:22:57.352Z,77.36
2023-05-21T04:28:00.247Z,76.52
2023-05-21T04:33:03.074Z,75.44
2023-05-21T04:38:05.818Z,75.17
2023-05-21T04:43:08.281Z,74.80
2023-05-21T04:48:10.282Z,74.13
2023-05-21T04:53:12.336Z,73.15
2023-05-21T04:58:14.746Z,72.40
2023-05-21T05:03:16.673Z,72.17
2023-05-21T05:08:18.946Z,71.20
2023-05-21T05:13:20.947Z,70.72
2023-05-21T05:18:23.281Z,70.36
2023-05-21T05:23:25.184Z,69.80
2023-05-21T05:28:27.771Z,69.44
2023-05-21T05:33:29.670Z,68.51
2023-05-21T05:38:31.457Z,68.39
2023-05-21T05:43:33.559Z,66.88
2023-05-21T05:48:35.627Z,65.74
2023-05-21T05:53:37.892Z,64.89
2023-05-21T05:58:39.977Z,64.46
2023-05-21T06:03:45.334Z,64.72
2023-05-21T06:08:49.750Z,64.04
2023-05-21T06:13:51.658Z,63.09
2023-05-21T06:18:53.426Z,62.80
2023-05-21T06:23:55.516Z,62.88
2023-05-21T06:28:57.471Z,62.81
2023-05-21T06:34:00.673Z,62.02
2023-05-21T06:39:03.782Z,60.71
2023-05-21T06:44:06.113Z,60.41
2023-05-21T06:49:14.602Z,59.99
2023-05-21T06:54:17.599Z,60.21
2023-05-21T06:59:19.677Z,59.62
2023-05-21T07:04:21.427Z,59.35
2023-05-21T07:09:23.274Z,57.41
2023-05-21T07:14:26.562Z,57.27
2023-05-21T07:19:28.583Z,56.59
2023-05-21T07:24:30.563Z,56.28
2023-05-21T07:29:34.155Z,55.62
2023-05-21T07:34:36.165Z,54.58
2023-05-21T07:39:38.804Z,54.99
2023-05-21T07:44:41.036Z,55.23
2023-05-21T07:49:42.910Z,54.16
2023-05-21T07:54:45.732Z,53.85
2023-05-21T07:59:47.901Z,53.08
2023-05-21T08:04:49.951Z,52.67
2023-05-21T08:09:53.821Z,51.95
2023-05-21T08:14:57.691Z,49.81
2023-05-21T08:19:59.502Z,48.78
2023-05-21T08:25:03.446Z,48.09
2023-05-21T08:30:06.872Z,47.55
2023-05-21T08:35:09.873Z,47.17
2023-05-21T08:40:31.103Z,46.00
2023-05-21T08:45:38.287Z,46.39
2023-05-21T08:50:41.583Z,44.50
2023-05-21T08:55:51.746Z,44.56
2023-05-21T09:00:56.344Z,42.87
2023-05-21T09:06:00.759Z,42.80
2023-05-21T09:11:03.796Z,42.02
2023-05-21T09:16:19.234Z,41.98
2023-05-21T09:21:28.858Z,42.73
2023-05-21T09:26:34.343Z,41.55
2023-05-21T09:31:44.053Z,40.99
2023-05-21T09:36:49.317Z,40.70
2023-05-21T09:41:51.229Z,41.53
2023-05-21T09:46:58.811Z,42.16
2023-05-21T09:52:00.636Z,41.95
2023-05-21T09:57:02.971Z,41.96
2023-05-21T10:02:16.522Z,40.65
2023-05-21T10:07:25.906Z,40.28
2023-05-21T10:12:31.017Z,38.80
2023-05-21T10:17:33.362Z,37.01
2023-05-21T10:22:35.753Z,38.48
2023-05-21T10:27:37.692Z,37.65
2023-05-21T10:32:42.169Z,37.88
2023-05-21T10:37:45.605Z,36.64
2023-05-21T10:43:13.411Z,35.77
2023-05-21T10:48:46.600Z,36.59
2023-05-21T10:53:59.339Z,37.66
2023-05-21T10:59:18.621Z,36.89
2023-05-21T11:04:26.861Z,35.72
2023-05-21T11:09:28.637Z,35.01
2023-05-21T11:14:42.962Z,35.37
2023-05-21T11:19:48.045Z,34.41
2023-05-21T11:24:51.479Z,34.90
2023-05-21T11:29:55.819Z,33.94
2023-05-21T11:35:02.158Z,34.38
2023-05-21T11:40:18.398Z,34.11
2023-05-21T11:45:23.480Z,32.86
2023-05-21T11:50:25.841Z,32.88
2023-05-21T11:55:27.925Z,32.10
2023-05-21T12:00:29.808Z,32.43
2023-05-21T12:05:31.591Z,32.14
2023-05-21T12:10:33.494Z,32.59
2023-05-21T12:15:35.759Z,32.96
2023-05-21T12:20:37.980Z,31.96
2023-05-21T12:25:40.078Z,33.44
2023-05-21T12:30:41.985Z,31.83
2023-05-21T12:35:50.269Z,31.85
2023-05-21T12:40:52.330Z,32.94
2023-05-21T12:45:54.213Z,33.07
2023-05-21T12:50:59.209Z,33.69
2023-05-21T12:56:11.690Z,32.96
2023-05-21T13:01:14.234Z,34.47
2023-05-21T13:06:15.998Z,33.58
2023-05-21T13:11:17.672Z,33.94
2023-05-21T13:16:22.195Z,33.47
2023-05-21T13:21:24.118Z,33.28
2023-05-21T13:26:25.898Z,33.58
2023-05-21T13:31:28.656Z,33.14
2023-05-21T13:36:31.343Z,33.00
2023-05-21T13:41:33.549Z,32.34
2023-05-21T13:46:39.618Z,32.60
2023-05-21T13:51:41.735Z,32.69
2023-05-21T13:56:43.493Z,32.69
2023-05-21T14:01:45.885Z,32.52
2023-05-21T14:06:48.259Z,32.61
2023-05-21T14:11:50.136Z,32.65
2023-05-21T14:16:52.521Z,32.54
2023-05-21T14:21:54.496Z,32.18
2023-05-21T14:26:56.319Z,32.31
2023-05-21T14:31:58.063Z,31.66
2023-05-21T14:36:59.884Z,32.24
2023-05-21T14:42:04.798Z,32.54
2023-05-21T14:47:06.551Z,31.06
2023-05-21T14:52:08.355Z,31.54
2023-05-21T14:57:10.137Z,31.14
2023-05-21T15:02:11.936Z,29.85
2023-05-21T15:07:13.897Z,30.31
2023-05-21T15:12:15.904Z,30.66
2023-05-21T15:17:17.626Z,31.58
2023-05-21T15:22:19.459Z,31.43
2023-05-21T15:27:21.182Z,31.74
2023-05-21T15:32:23.119Z,33.03
2023-05-21T15:37:25.351Z,32.04
2023-05-21T15:42:31.235Z,33.24
2023-05-21T15:47:33.049Z,34.32
2023-05-21T15:52:34.834Z,33.38
2023-05-21T15:57:36.622Z,34.18
2023-05-21T16:02:38.632Z,35.10
2023-05-21T16:07:40.518Z,35.24
2023-05-21T16:12:42.514Z,36.06
2023-05-21T16:17:44.208Z,36.47
2023-05-21T16:22:45.945Z,37.07
2023-05-21T16:27:48.816Z,37.83
2023-05-21T16:32:50.629Z,36.51
2023-05-21T16:37:52.473Z,36.07
2023-05-21T16:42:54.216Z,36.77
2023-05-21T16:47:55.977Z,37.68
2023-05-21T16:52:59.256Z,37.90
2023-05-21T16:58:02.455Z,38.80
2023-05-21T17:03:04.493Z,39.34
2023-05-21T17:08:06.524Z,39.64
2023-05-21T17:13:20.758Z,39.76
2023-05-21T17:18:23.711Z,39.65
2023-05-21T17:23:25.501Z,40.44
2023-05-21T17:28:27.381Z,40.91
2023-05-21T17:33:29.179Z,41.21
2023-05-21T17:38:30.977Z,41.90
2023-05-21T17:43:32.723Z,42.27
2023-05-21T17:48:34.694Z,42.88
2023-05-21T17:53:36.456Z,43.15
2023-05-21T17:58:38.288Z,43.30
2023-05-21T18:03:40.170Z,44.10
2023-05-21T18:08:42.013Z,44.66
2023-05-21T18:13:43.696Z,45.22
2023-05-21T18:18:45.442Z,45.76
2023-05-21T18:23:47.316Z,46.21
2023-05-21T18:28:49.840Z,46.83
2023-05-21T18:33:51.868Z,47.43
2023-05-21T18:38:53.637Z,48.07
2023-05-21T18:43:55.437Z,48.74
2023-05-21T18:48:59.463Z,49.28
2023-05-21T18:54:01.257Z,50.25
2023-05-21T18:59:03.089Z,50.99
2023-05-21T19:04:05.430Z,51.71
2023-05-21T19:09:07.250Z,52.92
2023-05-21T19:14:09.050Z,54.00
2023-05-21T19:19:10.781Z,54.69
2023-05-21T19:24:12.664Z,55.51
2023-05-21T19:29:14.420Z,55.84
2023-05-21T19:34:16.361Z,56.16
2023-05-21T19:39:18.214Z,56.62
2023-05-21T19:44:19.986Z,57.36
2023-05-21T19:49:21.935Z,58.13
2023-05-21T19:54:24.343Z,58.57
2023-05-21T19:59:26.426Z,58.54
2023-05-21T20:04:28.208Z,58.61
2023-05-21T20:09:29.897Z,58.77
2023-05-21T20:14:34.344Z,58.69
2023-05-21T20:19:37.901Z,59.23
2023-05-21T20:24:39.894Z,59.36
2023-05-21T20:29:42.934Z,59.53
2023-05-21T20:34:58.811Z,59.83
2023-05-21T20:40:06.787Z,60.21
2023-05-21T20:45:09.548Z,59.68
2023-05-21T20:50:12.272Z,59.05
2023-05-21T20:55:14.627Z,58.66
2023-05-21T21:00:17.159Z,58.37
2023-05-21T21:05:20.046Z,58.22
2023-05-21T21:10:23.633Z,57.88
2023-05-21T21:15:41.391Z,57.86
2023-05-21T21:20:43.720Z,57.87
2023-05-21T21:25:45.860Z,57.92
2023-05-21T21:30:47.615Z,57.98
2023-05-21T21:35:49.576Z,58.21
2023-05-21T21:40:54.530Z,58.34
2023-05-21T21:45:57.794Z,58.40
2023-05-21T21:51:01.895Z,58.53
2023-05-21T21:56:04.954Z,58.81
2023-05-21T22:01:06.789Z,58.80
2023-05-21T22:06:08.858Z,58.71
2023-05-21T22:11:11.031Z,58.94
2023-05-21T22:16:13.027Z,59.11
2023-05-21T22:21:18.377Z,59.18
2023-05-21T22:26:20.348Z,59.43
2023-05-21T22:31:22.193Z,59.76
2023-05-21T22:36:23.977Z,60.13
2023-05-21T22:41:25.958Z,60.19
2023-05-21T22:46:27.712Z,60.70
2023-05-21T22:51:34.566Z,60.97
2023-05-21T22:56:36.746Z,61.33
2023-05-21T23:01:38.858Z,61.68
2023-05-21T23:06:42.277Z,61.96
2023-05-21T23:11:44.686Z,62.03
2023-05-21T23:16:48.888Z,62.61
2023-05-21T23:21:50.699Z,62.44
2023-05-21T23:26:52.559Z,62.54
2023-05-21T23:31:56.389Z,63.14
2023-05-21T23:37:00.275Z,63.56
2023-05-21T23:42:03.166Z,63.76
2023-05-21T23:47:25.927Z,63.83
2023-05-21T23:52:27.665Z,64.23
2023-05-21T23:57:29.421Z,64.25
